sensor_id;sensor_type;location;lat;lon;timestamp;temperature;humidity
13488;DHT22;6816;48.506;9.050;2022-11-20T00:00:40;7.30;99.90
13488;DHT22;6816;48.506;9.050;2022-11-20T00:03:41;7.20;99.90
13488;DHT22;6816;48.506;9.050;2022-11-20T00:06:42;7.20;99.90
13488;DHT22;6816;48.506;9.050;2022-11-20T00:09:42;7.20;99.90
13488;DHT22;6816;48.506;9.050;2022-11-20T00:12:43;7.00;99.90
13488;DHT22;6816;48.506;9.050;2022-11-20T00:15:44;7.00;99.90
13488;DHT22;6816;48.506;9.050;2022-11-20T00:18:45;7.00;99.90
13488;DHT22;6816;48.506;9.050;2022-11-20T00:21:45;6.90;99.90
13488;DHT22;6816;48.506;9.050;2022-11-20T00:24:46;6.80;99.90
13488;DHT22;6816;48.506;9.050;2022-11-20T00:27:47;6.70;99.90
13488;DHT22;6816;48.506;9.050;2022-11-20T00:30:47;6.70;99.90
13488;DHT22;6816;48.506;9.050;2022-11-20T00:33:48;6.70;99.90
13488;DHT22;6816;48.506;9.050;2022-11-20T00:36:49;6.60;99.90
13488;DHT22;6816;48.506;9.050;2022-11-20T00:39:49;6.60;99.90
13488;DHT22;6816;48.506;9.050;2022-11-20T00:42:50;6.50;99.90
13488;DHT22;6816;48.506;9.050;2022-11-20T00:45:51;6.50;99.90
13488;DHT22;6816;48.506;9.050;2022-11-20T00:48:56;6.50;99.90
13488;DHT22;6816;48.506;9.050;2022-11-20T00:51:57;6.50;99.90
13488;DHT22;6816;48.506;9.050;2022-11-20T00:54:57;6.40;99.90
13488;DHT22;6816;48.506;9.050;2022-11-20T00:57:58;6.40;99.90
13488;DHT22;6816;48.506;9.050;2022-11-20T01:01:13;6.30;99.90
13488;DHT22;6816;48.506;9.050;2022-11-20T01:04:14;6.30;99.90
13488;DHT22;6816;48.506;9.050;2022-11-20T01:07:15;6.30;99.90
13488;DHT22;6816;48.506;9.050;2022-11-20T01:10:15;6.30;99.90
13488;DHT22;6816;48.506;9.050;2022-11-20T01:13:16;6.20;99.90
13488;DHT22;6816;48.506;9.050;2022-11-20T01:16:37;6.20;99.90
13488;DHT22;6816;48.506;9.050;2022-11-20T01:19:38;6.10;99.90
13488;DHT22;6816;48.506;9.050;2022-11-20T01:22:39;6.10;99.90
13488;DHT22;6816;48.506;9.050;2022-11-20T01:25:39;6.00;99.90
13488;DHT22;6816;48.506;9.050;2022-11-20T01:28:40;6.00;99.90
13488;DHT22;6816;48.506;9.050;2022-11-20T01:31:42;6.00;99.90
13488;DHT22;6816;48.506;9.050;2022-11-20T01:34:42;5.90;99.90
13488;DHT22;6816;48.506;9.050;2022-11-20T01:37:43;5.90;99.90
13488;DHT22;6816;48.506;9.050;2022-11-20T01:40:44;6.00;99.90
13488;DHT22;6816;48.506;9.050;2022-11-20T01:43:44;6.00;99.90
13488;DHT22;6816;48.506;9.050;2022-11-20T01:47:00;6.00;99.90
13488;DHT22;6816;48.506;9.050;2022-11-20T01:50:12;5.90;99.90
13488;DHT22;6816;48.506;9.050;2022-11-20T01:53:17;5.70;99.90
13488;DHT22;6816;48.506;9.050;2022-11-20T01:56:19;5.70;99.90
13488;DHT22;6816;48.506;9.050;2022-11-20T01:59:20;5.70;99.90
13488;DHT22;6816;48.506;9.050;2022-11-20T02:02:23;5.70;99.90
13488;DHT22;6816;48.506;9.050;2022-11-20T02:05:28;5.60;99.90
13488;DHT22;6816;48.506;9.050;2022-11-20T02:08:31;5.80;99.90
13488;DHT22;6816;48.506;9.050;2022-11-20T02:11:32;5.80;99.90
13488;DHT22;6816;48.506;9.050;2022-11-20T02:14:33;5.60;99.90
13488;DHT22;6816;48.506;9.050;2022-11-20T02:17:33;5.60;99.90
13488;DHT22;6816;48.506;9.050;2022-11-20T02:20:34;5.60;99.90
13488;DHT22;6816;48.506;9.050;2022-11-20T02:23:39;5.70;99.90
13488;DHT22;6816;48.506;9.050;2022-11-20T02:27:07;5.70;99.90
13488;DHT22;6816;48.506;9.050;2022-11-20T02:30:09;5.80;99.90
13488;DHT22;6816;48.506;9.050;2022-11-20T02:33:12;5.80;99.90
13488;DHT22;6816;48.506;9.050;2022-11-20T02:36:15;5.90;99.90
13488;DHT22;6816;48.506;9.050;2022-11-20T02:39:16;6.00;99.90
13488;DHT22;6816;48.506;9.050;2022-11-20T02:42:17;6.00;99.90
13488;DHT22;6816;48.506;9.050;2022-11-20T02:45:18;6.00;99.90
13488;DHT22;6816;48.506;9.050;2022-11-20T02:48:19;6.00;99.90
13488;DHT22;6816;48.506;9.050;2022-11-20T02:51:19;6.10;99.90
13488;DHT22;6816;48.506;9.050;2022-11-20T02:54:20;6.10;99.90
13488;DHT22;6816;48.506;9.050;2022-11-20T02:57:21;6.10;99.90
13488;DHT22;6816;48.506;9.050;2022-11-20T03:00:21;6.10;99.90
13488;DHT22;6816;48.506;9.050;2022-11-20T03:03:22;6.10;99.90
13488;DHT22;6816;48.506;9.050;2022-11-20T03:06:22;6.10;99.90
13488;DHT22;6816;48.506;9.050;2022-11-20T03:09:23;6.10;99.90
13488;DHT22;6816;48.506;9.050;2022-11-20T03:12:24;6.00;99.90
13488;DHT22;6816;48.506;9.050;2022-11-20T03:15:24;6.00;99.90
13488;DHT22;6816;48.506;9.050;2022-11-20T03:18:28;6.00;99.90
13488;DHT22;6816;48.506;9.050;2022-11-20T03:21:29;6.00;99.90
13488;DHT22;6816;48.506;9.050;2022-11-20T03:24:30;6.10;99.90
13488;DHT22;6816;48.506;9.050;2022-11-20T03:27:34;6.00;99.90
13488;DHT22;6816;48.506;9.050;2022-11-20T03:30:35;6.10;99.90
13488;DHT22;6816;48.506;9.050;2022-11-20T03:33:35;6.10;99.90
13488;DHT22;6816;48.506;9.050;2022-11-20T03:36:41;6.20;99.90
13488;DHT22;6816;48.506;9.050;2022-11-20T03:39:41;6.20;99.90
13488;DHT22;6816;48.506;9.050;2022-11-20T03:42:42;6.30;99.90
13488;DHT22;6816;48.506;9.050;2022-11-20T03:45:45;6.40;99.90
13488;DHT22;6816;48.506;9.050;2022-11-20T03:48:46;6.40;99.90
13488;DHT22;6816;48.506;9.050;2022-11-20T03:51:47;6.40;99.90
13488;DHT22;6816;48.506;9.050;2022-11-20T03:54:48;6.60;99.90
13488;DHT22;6816;48.506;9.050;2022-11-20T03:57:48;6.70;99.90
13488;DHT22;6816;48.506;9.050;2022-11-20T04:00:49;6.60;99.90
13488;DHT22;6816;48.506;9.050;2022-11-20T04:03:52;6.60;99.90
13488;DHT22;6816;48.506;9.050;2022-11-20T04:06:53;6.60;99.90
13488;DHT22;6816;48.506;9.050;2022-11-20T04:09:53;6.60;99.90
13488;DHT22;6816;48.506;9.050;2022-11-20T04:12:54;6.70;99.90
13488;DHT22;6816;48.506;9.050;2022-11-20T04:15:57;6.70;99.90
13488;DHT22;6816;48.506;9.050;2022-11-20T04:19:00;6.80;99.90
13488;DHT22;6816;48.506;9.050;2022-11-20T04:22:01;6.80;99.90
13488;DHT22;6816;48.506;9.050;2022-11-20T04:25:01;6.90;99.90
13488;DHT22;6816;48.506;9.050;2022-11-20T04:28:02;6.90;99.90
13488;DHT22;6816;48.506;9.050;2022-11-20T04:34:06;7.00;99.90
13488;DHT22;6816;48.506;9.050;2022-11-20T04:37:07;7.10;99.90
13488;DHT22;6816;48.506;9.050;2022-11-20T04:40:08;7.10;99.90
13488;DHT22;6816;48.506;9.050;2022-11-20T04:43:08;7.20;99.90
13488;DHT22;6816;48.506;9.050;2022-11-20T04:46:09;7.20;99.90
13488;DHT22;6816;48.506;9.050;2022-11-20T04:49:10;7.30;99.90
13488;DHT22;6816;48.506;9.050;2022-11-20T04:52:12;7.30;99.90
13488;DHT22;6816;48.506;9.050;2022-11-20T04:55:12;7.30;99.90
13488;DHT22;6816;48.506;9.050;2022-11-20T04:58:13;7.30;99.90
13488;DHT22;6816;48.506;9.050;2022-11-20T05:01:18;7.40;99.90
13488;DHT22;6816;48.506;9.050;2022-11-20T05:04:18;7.30;99.90
13488;DHT22;6816;48.506;9.050;2022-11-20T05:07:19;7.40;99.90
13488;DHT22;6816;48.506;9.050;2022-11-20T05:10:19;7.30;99.90
13488;DHT22;6816;48.506;9.050;2022-11-20T05:13:20;7.40;99.90
13488;DHT22;6816;48.506;9.050;2022-11-20T05:16:23;7.40;99.90
13488;DHT22;6816;48.506;9.050;2022-11-20T05:19:24;7.40;99.90
13488;DHT22;6816;48.506;9.050;2022-11-20T05:22:24;7.40;99.90
13488;DHT22;6816;48.506;9.050;2022-11-20T05:25:25;7.40;99.90
13488;DHT22;6816;48.506;9.050;2022-11-20T05:28:27;7.40;99.90
13488;DHT22;6816;48.506;9.050;2022-11-20T05:31:28;7.40;99.90
13488;DHT22;6816;48.506;9.050;2022-11-20T05:34:28;7.40;99.90
13488;DHT22;6816;48.506;9.050;2022-11-20T05:37:29;7.40;99.90
13488;DHT22;6816;48.506;9.050;2022-11-20T05:40:30;7.50;99.90
13488;DHT22;6816;48.506;9.050;2022-11-20T05:43:34;7.50;99.90
13488;DHT22;6816;48.506;9.050;2022-11-20T05:46:35;7.50;99.90
13488;DHT22;6816;48.506;9.050;2022-11-20T05:49:36;7.40;99.90
13488;DHT22;6816;48.506;9.050;2022-11-20T05:52:36;7.40;99.90
13488;DHT22;6816;48.506;9.050;2022-11-20T05:55:37;7.40;99.90
13488;DHT22;6816;48.506;9.050;2022-11-20T05:58:38;7.40;99.90
13488;DHT22;6816;48.506;9.050;2022-11-20T06:01:39;7.40;99.90
13488;DHT22;6816;48.506;9.050;2022-11-20T06:04:40;7.50;99.90
13488;DHT22;6816;48.506;9.050;2022-11-20T06:07:40;7.50;99.90
13488;DHT22;6816;48.506;9.050;2022-11-20T06:10:41;7.50;99.90
13488;DHT22;6816;48.506;9.050;2022-11-20T06:13:42;7.50;99.90
13488;DHT22;6816;48.506;9.050;2022-11-20T06:16:42;7.50;99.90
13488;DHT22;6816;48.506;9.050;2022-11-20T06:19:43;7.50;99.90
13488;DHT22;6816;48.506;9.050;2022-11-20T06:22:43;7.50;99.90
13488;DHT22;6816;48.506;9.050;2022-11-20T06:25:44;7.50;99.90
13488;DHT22;6816;48.506;9.050;2022-11-20T06:28:45;7.50;99.90
13488;DHT22;6816;48.506;9.050;2022-11-20T06:31:45;7.50;99.90
13488;DHT22;6816;48.506;9.050;2022-11-20T06:34:46;7.50;99.90
13488;DHT22;6816;48.506;9.050;2022-11-20T06:37:47;7.50;99.90
13488;DHT22;6816;48.506;9.050;2022-11-20T06:40:47;7.40;99.90
13488;DHT22;6816;48.506;9.050;2022-11-20T06:43:48;7.40;99.90
13488;DHT22;6816;48.506;9.050;2022-11-20T06:46:49;7.40;99.90
13488;DHT22;6816;48.506;9.050;2022-11-20T06:49:50;7.40;99.90
13488;DHT22;6816;48.506;9.050;2022-11-20T06:52:50;7.40;99.90
13488;DHT22;6816;48.506;9.050;2022-11-20T06:55:51;7.40;99.90
13488;DHT22;6816;48.506;9.050;2022-11-20T06:58:52;7.40;99.90
13488;DHT22;6816;48.506;9.050;2022-11-20T07:01:53;7.40;99.90
13488;DHT22;6816;48.506;9.050;2022-11-20T07:04:53;7.40;99.90
13488;DHT22;6816;48.506;9.050;2022-11-20T07:07:56;7.40;99.90
13488;DHT22;6816;48.506;9.050;2022-11-20T07:10:58;7.40;99.90
13488;DHT22;6816;48.506;9.050;2022-11-20T07:13:59;7.50;99.90
13488;DHT22;6816;48.506;9.050;2022-11-20T07:17:00;7.40;99.90
13488;DHT22;6816;48.506;9.050;2022-11-20T07:20:01;7.50;99.90
13488;DHT22;6816;48.506;9.050;2022-11-20T07:23:01;7.50;99.90
13488;DHT22;6816;48.506;9.050;2022-11-20T07:26:04;7.50;99.90
13488;DHT22;6816;48.506;9.050;2022-11-20T07:29:05;7.50;99.90
13488;DHT22;6816;48.506;9.050;2022-11-20T07:32:05;7.50;99.90
13488;DHT22;6816;48.506;9.050;2022-11-20T07:35:06;7.60;99.90
13488;DHT22;6816;48.506;9.050;2022-11-20T07:38:07;7.60;99.90
13488;DHT22;6816;48.506;9.050;2022-11-20T07:41:08;7.70;99.90
13488;DHT22;6816;48.506;9.050;2022-11-20T07:44:08;7.70;99.90
13488;DHT22;6816;48.506;9.050;2022-11-20T07:47:09;7.70;99.90
13488;DHT22;6816;48.506;9.050;2022-11-20T07:50:11;7.80;99.90
13488;DHT22;6816;48.506;9.050;2022-11-20T07:53:11;7.80;99.90
13488;DHT22;6816;48.506;9.050;2022-11-20T07:56:14;7.90;99.90
13488;DHT22;6816;48.506;9.050;2022-11-20T07:59:15;8.00;99.90
13488;DHT22;6816;48.506;9.050;2022-11-20T08:02:16;8.00;99.90
13488;DHT22;6816;48.506;9.050;2022-11-20T08:05:16;8.10;99.90
13488;DHT22;6816;48.506;9.050;2022-11-20T08:08:17;8.10;99.90
13488;DHT22;6816;48.506;9.050;2022-11-20T08:11:18;8.40;99.90
13488;DHT22;6816;48.506;9.050;2022-11-20T08:14:37;8.30;99.90
13488;DHT22;6816;48.506;9.050;2022-11-20T08:17:38;8.40;99.90
13488;DHT22;6816;48.506;9.050;2022-11-20T08:20:38;8.40;99.90
13488;DHT22;6816;48.506;9.050;2022-11-20T08:23:39;8.50;99.90
13488;DHT22;6816;48.506;9.050;2022-11-20T08:26:40;8.50;99.90
13488;DHT22;6816;48.506;9.050;2022-11-20T08:29:41;8.60;99.90
13488;DHT22;6816;48.506;9.050;2022-11-20T08:32:41;8.70;99.90
13488;DHT22;6816;48.506;9.050;2022-11-20T08:35:42;8.70;99.90
13488;DHT22;6816;48.506;9.050;2022-11-20T08:38:47;8.90;99.90
13488;DHT22;6816;48.506;9.050;2022-11-20T08:41:48;8.90;99.90
13488;DHT22;6816;48.506;9.050;2022-11-20T08:44:49;9.00;99.90
13488;DHT22;6816;48.506;9.050;2022-11-20T08:47:49;9.10;99.90
13488;DHT22;6816;48.506;9.050;2022-11-20T08:50:50;9.10;99.90
13488;DHT22;6816;48.506;9.050;2022-11-20T08:53:51;9.20;99.90
13488;DHT22;6816;48.506;9.050;2022-11-20T08:56:51;9.30;99.90
13488;DHT22;6816;48.506;9.050;2022-11-20T08:59:52;9.30;99.90
13488;DHT22;6816;48.506;9.050;2022-11-20T09:02:53;9.40;99.90
13488;DHT22;6816;48.506;9.050;2022-11-20T09:06:01;9.40;99.90
13488;DHT22;6816;48.506;9.050;2022-11-20T09:09:02;9.50;99.90
13488;DHT22;6816;48.506;9.050;2022-11-20T09:12:03;9.50;99.90
13488;DHT22;6816;48.506;9.050;2022-11-20T09:15:04;9.60;99.90
13488;DHT22;6816;48.506;9.050;2022-11-20T09:18:04;9.60;99.90
13488;DHT22;6816;48.506;9.050;2022-11-20T09:21:09;9.70;99.90
13488;DHT22;6816;48.506;9.050;2022-11-20T09:24:11;9.70;99.90
13488;DHT22;6816;48.506;9.050;2022-11-20T09:27:11;9.80;99.90
13488;DHT22;6816;48.506;9.050;2022-11-20T09:30:15;9.80;99.90
13488;DHT22;6816;48.506;9.050;2022-11-20T09:33:26;9.80;99.90
13488;DHT22;6816;48.506;9.050;2022-11-20T09:36:27;9.90;99.90
13488;DHT22;6816;48.506;9.050;2022-11-20T09:39:27;9.90;99.90
13488;DHT22;6816;48.506;9.050;2022-11-20T09:56:26;9.90;99.90
13488;DHT22;6816;48.506;9.050;2022-11-20T09:59:43;9.90;99.90
13488;DHT22;6816;48.506;9.050;2022-11-20T10:02:55;9.90;99.90
13488;DHT22;6816;48.506;9.050;2022-11-20T10:05:57;9.90;99.90
13488;DHT22;6816;48.506;9.050;2022-11-20T10:12:33;9.90;99.90
13488;DHT22;6816;48.506;9.050;2022-11-20T10:22:27;10.00;99.90
13488;DHT22;6816;48.506;9.050;2022-11-20T10:25:46;10.00;99.90
13488;DHT22;6816;48.506;9.050;2022-11-20T10:32:15;10.10;99.90
13488;DHT22;6816;48.506;9.050;2022-11-20T10:35:39;10.20;99.90
13488;DHT22;6816;48.506;9.050;2022-11-20T10:38:57;10.20;99.90
13488;DHT22;6816;48.506;9.050;2022-11-20T10:41:59;10.20;99.90
13488;DHT22;6816;48.506;9.050;2022-11-20T10:48:27;10.30;99.90
13488;DHT22;6816;48.506;9.050;2022-11-20T11:01:16;10.40;99.90
13488;DHT22;6816;48.506;9.050;2022-11-20T11:07:35;10.60;99.90
13488;DHT22;6816;48.506;9.050;2022-11-20T11:10:54;10.60;99.90
13488;DHT22;6816;48.506;9.050;2022-11-20T11:14:12;10.60;99.90
13488;DHT22;6816;48.506;9.050;2022-11-20T11:20:27;10.80;99.90
13488;DHT22;6816;48.506;9.050;2022-11-20T11:23:36;10.90;99.90
13488;DHT22;6816;48.506;9.050;2022-11-20T11:26:37;11.00;99.90
13488;DHT22;6816;48.506;9.050;2022-11-20T11:29:38;11.20;99.90
13488;DHT22;6816;48.506;9.050;2022-11-20T11:32:39;11.30;99.90
13488;DHT22;6816;48.506;9.050;2022-11-20T11:35:48;11.60;99.90
13488;DHT22;6816;48.506;9.050;2022-11-20T11:38:51;11.50;99.90
13488;DHT22;6816;48.506;9.050;2022-11-20T11:41:57;11.60;99.90
13488;DHT22;6816;48.506;9.050;2022-11-20T11:44:59;11.70;99.90
13488;DHT22;6816;48.506;9.050;2022-11-20T11:48:08;11.80;99.90
13488;DHT22;6816;48.506;9.050;2022-11-20T11:51:09;12.00;99.90
13488;DHT22;6816;48.506;9.050;2022-11-20T12:00:35;12.10;99.90
13488;DHT22;6816;48.506;9.050;2022-11-20T12:03:38;12.00;99.90
13488;DHT22;6816;48.506;9.050;2022-11-20T12:06:45;11.90;99.90
13488;DHT22;6816;48.506;9.050;2022-11-20T12:09:50;12.00;99.90
13488;DHT22;6816;48.506;9.050;2022-11-20T12:12:58;11.80;99.90
13488;DHT22;6816;48.506;9.050;2022-11-20T12:16:02;11.70;99.90
13488;DHT22;6816;48.506;9.050;2022-11-20T12:19:08;11.70;99.90
13488;DHT22;6816;48.506;9.050;2022-11-20T12:25:51;11.60;99.90
13488;DHT22;6816;48.506;9.050;2022-11-20T12:29:06;11.60;99.90
13488;DHT22;6816;48.506;9.050;2022-11-20T12:39:17;11.60;99.90
13488;DHT22;6816;48.506;9.050;2022-11-20T12:42:50;11.60;99.90
13488;DHT22;6816;48.506;9.050;2022-11-20T12:49:42;11.60;99.90
13488;DHT22;6816;48.506;9.050;2022-11-20T12:52:56;11.60;99.90
13488;DHT22;6816;48.506;9.050;2022-11-20T12:59:48;11.60;99.90
13488;DHT22;6816;48.506;9.050;2022-11-20T13:06:18;11.50;99.90
13488;DHT22;6816;48.506;9.050;2022-11-20T13:09:20;11.40;99.90
13488;DHT22;6816;48.506;9.050;2022-11-20T13:12:39;11.30;99.90
13488;DHT22;6816;48.506;9.050;2022-11-20T13:19:17;11.20;99.90
13488;DHT22;6816;48.506;9.050;2022-11-20T13:22:45;11.20;99.90
13488;DHT22;6816;48.506;9.050;2022-11-20T13:25:46;11.20;99.90
13488;DHT22;6816;48.506;9.050;2022-11-20T13:29:01;11.10;99.90
13488;DHT22;6816;48.506;9.050;2022-11-20T13:32:16;11.10;99.90
13488;DHT22;6816;48.506;9.050;2022-11-20T13:35:36;11.10;99.90
13488;DHT22;6816;48.506;9.050;2022-11-20T13:38:56;11.00;99.90
13488;DHT22;6816;48.506;9.050;2022-11-20T13:41:59;11.00;99.90
13488;DHT22;6816;48.506;9.050;2022-11-20T13:45:10;11.00;99.90
13488;DHT22;6816;48.506;9.050;2022-11-20T13:48:23;11.00;99.90
13488;DHT22;6816;48.506;9.050;2022-11-20T13:51:43;11.00;99.90
13488;DHT22;6816;48.506;9.050;2022-11-20T14:01:23;10.80;99.90
13488;DHT22;6816;48.506;9.050;2022-11-20T14:04:32;10.70;99.90
13488;DHT22;6816;48.506;9.050;2022-11-20T14:07:42;10.70;99.90
13488;DHT22;6816;48.506;9.050;2022-11-20T14:10:43;10.70;99.90
13488;DHT22;6816;48.506;9.050;2022-11-20T14:17:07;10.50;99.90
13488;DHT22;6816;48.506;9.050;2022-11-20T14:20:14;10.40;99.90
13488;DHT22;6816;48.506;9.050;2022-11-20T14:23:24;10.40;99.90
13488;DHT22;6816;48.506;9.050;2022-11-20T14:26:25;10.30;99.90
13488;DHT22;6816;48.506;9.050;2022-11-20T14:29:34;10.40;99.90
13488;DHT22;6816;48.506;9.050;2022-11-20T14:32:35;10.30;99.90
13488;DHT22;6816;48.506;9.050;2022-11-20T14:35:44;10.30;99.90
13488;DHT22;6816;48.506;9.050;2022-11-20T14:38:46;10.30;99.90
13488;DHT22;6816;48.506;9.050;2022-11-20T14:41:51;10.20;99.90
13488;DHT22;6816;48.506;9.050;2022-11-20T14:44:58;10.20;99.90
13488;DHT22;6816;48.506;9.050;2022-11-20T14:47:59;10.10;99.90
13488;DHT22;6816;48.506;9.050;2022-11-20T14:51:00;10.10;99.90
13488;DHT22;6816;48.506;9.050;2022-11-20T15:00:24;10.10;99.90
13488;DHT22;6816;48.506;9.050;2022-11-20T15:03:33;10.10;99.90
13488;DHT22;6816;48.506;9.050;2022-11-20T15:06:34;10.10;99.90
13488;DHT22;6816;48.506;9.050;2022-11-20T15:09:35;10.00;99.90
13488;DHT22;6816;48.506;9.050;2022-11-20T15:12:40;10.00;99.90
13488;DHT22;6816;48.506;9.050;2022-11-20T15:15:50;10.00;99.90
13488;DHT22;6816;48.506;9.050;2022-11-20T15:18:51;10.00;99.90
13488;DHT22;6816;48.506;9.050;2022-11-20T15:21:52;9.90;99.90
13488;DHT22;6816;48.506;9.050;2022-11-20T15:24:53;9.80;99.90
13488;DHT22;6816;48.506;9.050;2022-11-20T15:27:56;9.80;99.90
13488;DHT22;6816;48.506;9.050;2022-11-20T15:30:57;9.70;99.90
13488;DHT22;6816;48.506;9.050;2022-11-20T15:33:58;9.60;99.90
13488;DHT22;6816;48.506;9.050;2022-11-20T15:36:58;9.50;99.90
13488;DHT22;6816;48.506;9.050;2022-11-20T15:39:59;9.50;99.90
13488;DHT22;6816;48.506;9.050;2022-11-20T15:42:59;9.40;99.90
13488;DHT22;6816;48.506;9.050;2022-11-20T15:49:06;9.20;99.90
13488;DHT22;6816;48.506;9.050;2022-11-20T15:52:12;9.20;99.90
13488;DHT22;6816;48.506;9.050;2022-11-20T15:55:13;8.90;99.90
13488;DHT22;6816;48.506;9.050;2022-11-20T15:58:14;9.00;99.90
13488;DHT22;6816;48.506;9.050;2022-11-20T16:01:19;8.90;99.90
13488;DHT22;6816;48.506;9.050;2022-11-20T16:04:21;8.90;99.90
13488;DHT22;6816;48.506;9.050;2022-11-20T16:07:21;8.80;99.90
13488;DHT22;6816;48.506;9.050;2022-11-20T16:10:22;8.70;99.90
13488;DHT22;6816;48.506;9.050;2022-11-20T16:13:23;8.80;99.90
13488;DHT22;6816;48.506;9.050;2022-11-20T16:16:43;8.60;99.90
13488;DHT22;6816;48.506;9.050;2022-11-20T16:19:43;8.50;99.90
13488;DHT22;6816;48.506;9.050;2022-11-20T16:22:44;8.50;99.90
13488;DHT22;6816;48.506;9.050;2022-11-20T16:25:45;8.40;99.90
13488;DHT22;6816;48.506;9.050;2022-11-20T16:28:45;8.30;99.90
13488;DHT22;6816;48.506;9.050;2022-11-20T16:31:46;8.30;99.90
13488;DHT22;6816;48.506;9.050;2022-11-20T16:34:47;8.30;99.90
13488;DHT22;6816;48.506;9.050;2022-11-20T16:37:47;8.30;99.90
13488;DHT22;6816;48.506;9.050;2022-11-20T16:40:48;8.30;99.90
13488;DHT22;6816;48.506;9.050;2022-11-20T16:43:51;8.30;99.90
13488;DHT22;6816;48.506;9.050;2022-11-20T16:46:51;8.20;99.90
13488;DHT22;6816;48.506;9.050;2022-11-20T16:49:52;8.20;99.90
13488;DHT22;6816;48.506;9.050;2022-11-20T16:52:53;8.20;99.90
13488;DHT22;6816;48.506;9.050;2022-11-20T16:55:53;8.20;99.90
13488;DHT22;6816;48.506;9.050;2022-11-20T16:58:56;8.20;99.90
13488;DHT22;6816;48.506;9.050;2022-11-20T17:01:57;8.30;99.90
13488;DHT22;6816;48.506;9.050;2022-11-20T17:04:57;8.30;99.90
13488;DHT22;6816;48.506;9.050;2022-11-20T17:07:58;8.30;99.90
13488;DHT22;6816;48.506;9.050;2022-11-20T17:11:04;8.30;99.90
13488;DHT22;6816;48.506;9.050;2022-11-20T17:14:05;8.40;99.90
13488;DHT22;6816;48.506;9.050;2022-11-20T17:17:09;8.40;99.90
13488;DHT22;6816;48.506;9.050;2022-11-20T17:20:10;8.40;99.90
13488;DHT22;6816;48.506;9.050;2022-11-20T17:23:11;8.40;99.90
13488;DHT22;6816;48.506;9.050;2022-11-20T17:26:20;8.50;99.90
13488;DHT22;6816;48.506;9.050;2022-11-20T17:29:21;8.50;99.90
13488;DHT22;6816;48.506;9.050;2022-11-20T17:32:23;8.50;99.90
13488;DHT22;6816;48.506;9.050;2022-11-20T17:35:24;8.50;99.90
13488;DHT22;6816;48.506;9.050;2022-11-20T17:38:24;8.50;99.90
13488;DHT22;6816;48.506;9.050;2022-11-20T17:41:27;8.50;99.90
13488;DHT22;6816;48.506;9.050;2022-11-20T17:44:28;8.50;99.90
13488;DHT22;6816;48.506;9.050;2022-11-20T17:47:28;8.50;99.90
13488;DHT22;6816;48.506;9.050;2022-11-20T17:50:29;8.50;99.90
13488;DHT22;6816;48.506;9.050;2022-11-20T17:53:36;8.50;99.90
13488;DHT22;6816;48.506;9.050;2022-11-20T17:56:37;8.50;99.90
13488;DHT22;6816;48.506;9.050;2022-11-20T17:59:56;8.50;99.90
13488;DHT22;6816;48.506;9.050;2022-11-20T18:02:57;8.50;99.90
13488;DHT22;6816;48.506;9.050;2022-11-20T18:05:58;8.50;99.90
13488;DHT22;6816;48.506;9.050;2022-11-20T18:09:06;8.50;99.90
13488;DHT22;6816;48.506;9.050;2022-11-20T18:12:07;8.50;99.90
13488;DHT22;6816;48.506;9.050;2022-11-20T18:15:08;8.60;99.90
13488;DHT22;6816;48.506;9.050;2022-11-20T18:18:09;8.60;99.90
13488;DHT22;6816;48.506;9.050;2022-11-20T18:21:09;8.50;99.90
13488;DHT22;6816;48.506;9.050;2022-11-20T18:24:10;8.70;99.90
13488;DHT22;6816;48.506;9.050;2022-11-20T18:27:17;8.60;99.90
13488;DHT22;6816;48.506;9.050;2022-11-20T18:30:18;8.60;99.90
13488;DHT22;6816;48.506;9.050;2022-11-20T18:33:19;8.60;99.90
13488;DHT22;6816;48.506;9.050;2022-11-20T18:36:22;8.60;99.90
13488;DHT22;6816;48.506;9.050;2022-11-20T18:39:23;8.60;99.90
13488;DHT22;6816;48.506;9.050;2022-11-20T18:42:24;8.70;99.90
13488;DHT22;6816;48.506;9.050;2022-11-20T18:45:42;8.70;99.90
13488;DHT22;6816;48.506;9.050;2022-11-20T18:48:44;8.80;99.90
13488;DHT22;6816;48.506;9.050;2022-11-20T18:51:44;8.80;99.90
13488;DHT22;6816;48.506;9.050;2022-11-20T18:54:45;8.90;99.90
13488;DHT22;6816;48.506;9.050;2022-11-20T18:57:46;8.90;99.90
13488;DHT22;6816;48.506;9.050;2022-11-20T19:00:46;8.90;99.90
13488;DHT22;6816;48.506;9.050;2022-11-20T19:03:47;8.90;99.90
13488;DHT22;6816;48.506;9.050;2022-11-20T19:06:47;9.00;99.90
13488;DHT22;6816;48.506;9.050;2022-11-20T19:09:55;8.90;99.90
13488;DHT22;6816;48.506;9.050;2022-11-20T19:12:56;8.90;99.90
13488;DHT22;6816;48.506;9.050;2022-11-20T19:16:01;8.90;99.90
13488;DHT22;6816;48.506;9.050;2022-11-20T19:19:03;8.90;99.90
13488;DHT22;6816;48.506;9.050;2022-11-20T19:22:04;8.80;99.90
13488;DHT22;6816;48.506;9.050;2022-11-20T19:25:06;8.80;99.90
13488;DHT22;6816;48.506;9.050;2022-11-20T19:28:06;8.70;99.90
13488;DHT22;6816;48.506;9.050;2022-11-20T19:31:23;8.70;99.90
13488;DHT22;6816;48.506;9.050;2022-11-20T19:34:27;8.60;99.90
13488;DHT22;6816;48.506;9.050;2022-11-20T19:37:30;8.60;99.90
13488;DHT22;6816;48.506;9.050;2022-11-20T19:40:31;8.60;99.90
13488;DHT22;6816;48.506;9.050;2022-11-20T19:43:32;8.60;99.90
13488;DHT22;6816;48.506;9.050;2022-11-20T19:46:34;8.50;99.90
13488;DHT22;6816;48.506;9.050;2022-11-20T19:49:35;8.40;99.90
13488;DHT22;6816;48.506;9.050;2022-11-20T19:52:36;8.40;99.90
13488;DHT22;6816;48.506;9.050;2022-11-20T19:55:36;8.40;99.90
13488;DHT22;6816;48.506;9.050;2022-11-20T19:58:38;8.30;99.90
13488;DHT22;6816;48.506;9.050;2022-11-20T20:01:38;8.30;99.90
13488;DHT22;6816;48.506;9.050;2022-11-20T20:04:39;8.30;99.90
13488;DHT22;6816;48.506;9.050;2022-11-20T20:07:40;8.30;99.90
13488;DHT22;6816;48.506;9.050;2022-11-20T20:10:40;8.30;99.90
13488;DHT22;6816;48.506;9.050;2022-11-20T20:13:42;8.20;99.90
13488;DHT22;6816;48.506;9.050;2022-11-20T20:16:42;8.30;99.90
13488;DHT22;6816;48.506;9.050;2022-11-20T20:19:44;8.20;99.90
13488;DHT22;6816;48.506;9.050;2022-11-20T20:22:45;8.20;99.90
13488;DHT22;6816;48.506;9.050;2022-11-20T20:25:47;8.30;99.90
13488;DHT22;6816;48.506;9.050;2022-11-20T20:28:47;8.20;99.90
13488;DHT22;6816;48.506;9.050;2022-11-20T20:31:48;8.20;99.90
13488;DHT22;6816;48.506;9.050;2022-11-20T20:34:48;8.30;99.90
13488;DHT22;6816;48.506;9.050;2022-11-20T20:37:49;8.20;99.90
13488;DHT22;6816;48.506;9.050;2022-11-20T20:40:50;8.30;99.90
13488;DHT22;6816;48.506;9.050;2022-11-20T20:43:51;8.20;99.90
13488;DHT22;6816;48.506;9.050;2022-11-20T20:47:10;8.20;99.90
13488;DHT22;6816;48.506;9.050;2022-11-20T20:50:11;8.20;99.90
13488;DHT22;6816;48.506;9.050;2022-11-20T20:53:12;8.30;99.90
13488;DHT22;6816;48.506;9.050;2022-11-20T20:56:13;8.20;99.90
13488;DHT22;6816;48.506;9.050;2022-11-20T20:59:14;8.20;99.90
13488;DHT22;6816;48.506;9.050;2022-11-20T21:02:14;8.20;99.90
13488;DHT22;6816;48.506;9.050;2022-11-20T21:05:15;8.20;99.90
13488;DHT22;6816;48.506;9.050;2022-11-20T21:08:17;8.20;99.90
13488;DHT22;6816;48.506;9.050;2022-11-20T21:11:20;8.20;99.90
13488;DHT22;6816;48.506;9.050;2022-11-20T21:14:21;8.20;99.90
13488;DHT22;6816;48.506;9.050;2022-11-20T21:17:22;8.30;99.90
13488;DHT22;6816;48.506;9.050;2022-11-20T21:20:22;8.20;99.90
13488;DHT22;6816;48.506;9.050;2022-11-20T21:23:44;8.20;99.90
13488;DHT22;6816;48.506;9.050;2022-11-20T21:26:45;8.10;99.90
13488;DHT22;6816;48.506;9.050;2022-11-20T21:29:46;8.10;99.90
13488;DHT22;6816;48.506;9.050;2022-11-20T21:32:48;8.10;99.90